createdAt,value
2022-08-18T00:01:22.639Z,39.21
2022-08-18T00:03:55.753Z,39.29
2022-08-18T00:06:28.654Z,39.78
2022-08-18T00:08:59.486Z,39.15
2022-08-18T00:11:27.507Z,39.39
2022-08-18T00:13:54.745Z,39.57
2022-08-18T00:16:22.261Z,39.95
2022-08-18T00:18:50.008Z,39.92
2022-08-18T00:21:18.076Z,39.99
2022-08-18T00:23:45.602Z,39.48
2022-08-18T00:26:13.659Z,39.97
2022-08-18T00:28:40.892Z,40.11
2022-08-18T00:31:08.584Z,40.42
2022-08-18T00:33:35.818Z,40.33
2022-08-18T00:36:02.978Z,40.50
2022-08-18T00:38:30.420Z,40.69
2022-08-18T00:40:57.625Z,41.00
2022-08-18T00:43:45.132Z,41.79
2022-08-18T00:46:14.698Z,41.09
2022-08-18T00:48:48.611Z,41.56
2022-08-18T00:51:19.478Z,41.16
2022-08-18T00:53:52.035Z,41.27
2022-08-18T00:56:22.336Z,42.73
2022-08-18T00:58:50.940Z,41.65
2022-08-18T01:01:20.206Z,41.94
2022-08-18T01:03:53.041Z,41.99
2022-08-18T01:06:24.157Z,42.75
2022-08-18T01:08:52.548Z,42.91
2022-08-18T01:11:20.000Z,42.22
2022-08-18T01:13:47.230Z,42.62
2022-08-18T01:16:33.392Z,42.56
2022-08-18T01:19:19.326Z,42.72
2022-08-18T01:21:51.597Z,42.79
2022-08-18T01:24:43.791Z,43.04
2022-08-18T01:27:11.460Z,42.72
2022-08-18T01:29:42.913Z,42.80
2022-08-18T01:32:12.534Z,43.27
2022-08-18T01:34:39.783Z,43.19
2022-08-18T01:37:07.157Z,43.16
2022-08-18T01:41:27.815Z,43.31
2022-08-18T01:42:22.058Z,43.26
2022-08-18T01:44:51.425Z,43.32
2022-08-18T01:47:20.042Z,43.50
2022-08-18T01:49:47.313Z,44.01
2022-08-18T01:52:19.545Z,43.70
2022-08-18T01:54:47.638Z,43.61
2022-08-18T01:57:16.649Z,43.77
2022-08-18T01:59:45.083Z,43.67
2022-08-18T02:02:15.849Z,43.83
2022-08-18T02:04:46.920Z,43.67
2022-08-18T02:07:15.089Z,44.09
2022-08-18T02:09:42.897Z,44.43
2022-08-18T02:12:12.590Z,44.69
2022-08-18T02:14:39.885Z,44.52
2022-08-18T02:17:07.949Z,44.65
2022-08-18T02:19:40.258Z,44.44
2022-08-18T02:22:08.040Z,44.95
2022-08-18T02:24:35.861Z,44.51
2022-08-18T02:27:06.050Z,44.48
2022-08-18T02:29:33.238Z,44.67
2022-08-18T02:32:01.439Z,44.74
2022-08-18T02:34:28.589Z,45.95
2022-08-18T02:37:00.290Z,45.18
2022-08-18T02:39:28.275Z,45.53
2022-08-18T02:41:55.499Z,45.28
2022-08-18T02:44:22.659Z,45.42
2022-08-18T02:46:54.221Z,45.38
2022-08-18T02:49:21.664Z,45.78
2022-08-18T02:51:49.756Z,45.32
2022-08-18T02:54:18.505Z,45.91
2022-08-18T02:56:47.022Z,45.63
2022-08-18T02:59:15.317Z,46.09
2022-08-18T03:01:44.309Z,46.36
2022-08-18T03:04:14.415Z,46.19
2022-08-18T03:06:41.772Z,46.58
2022-08-18T03:09:09.907Z,47.08
2022-08-18T03:11:37.547Z,46.93
2022-08-18T03:14:05.672Z,47.28
2022-08-18T03:16:33.473Z,46.89
2022-08-18T03:19:01.417Z,47.16
2022-08-18T03:21:29.462Z,46.68
2022-08-18T03:24:01.207Z,46.76
2022-08-18T03:26:30.082Z,46.86
2022-08-18T03:28:58.105Z,47.11
2022-08-18T03:31:27.877Z,46.84
2022-08-18T03:33:59.096Z,47.01
2022-08-18T03:36:28.678Z,47.43
2022-08-18T03:38:56.020Z,47.15
2022-08-18T03:41:43.665Z,47.28
2022-08-18T03:44:11.808Z,47.84
2022-08-18T03:46:40.508Z,47.66
2022-08-18T03:49:08.438Z,48.05
2022-08-18T03:51:36.909Z,48.13
2022-08-18T03:54:04.378Z,48.03
2022-08-18T03:56:35.616Z,48.10
2022-08-18T03:59:08.694Z,47.84
2022-08-18T04:01:39.564Z,47.76
2022-08-18T04:04:08.258Z,47.86
2022-08-18T04:06:59.051Z,48.15
2022-08-18T04:09:28.990Z,48.51
2022-08-18T04:11:56.665Z,48.70
2022-08-18T04:14:25.003Z,48.98
2022-08-18T04:16:53.158Z,49.14
2022-08-18T04:19:26.926Z,49.94
2022-08-18T04:21:55.906Z,49.42
2022-08-18T04:24:23.236Z,48.66
2022-08-18T04:26:50.452Z,48.85
2022-08-18T04:29:19.703Z,49.33
2022-08-18T04:31:47.240Z,49.46
2022-08-18T04:34:14.691Z,49.74
2022-08-18T04:36:42.318Z,49.24
2022-08-18T04:39:10.902Z,49.52
2022-08-18T04:41:38.762Z,49.50
2022-08-18T04:44:08.603Z,50.03
2022-08-18T04:46:40.090Z,50.68
2022-08-18T04:49:09.362Z,49.85
2022-08-18T04:52:37.011Z,49.81
2022-08-18T04:54:25.650Z,49.82
2022-08-18T04:56:53.274Z,49.98
2022-08-18T04:59:20.706Z,50.31
2022-08-18T05:01:48.425Z,50.17
2022-08-18T05:04:17.014Z,50.44
2022-08-18T05:06:44.573Z,50.59
2022-08-18T05:09:12.415Z,50.85
2022-08-18T05:11:44.608Z,50.57
2022-08-18T05:14:12.147Z,50.78
2022-08-18T05:16:47.906Z,50.75
2022-08-18T05:19:19.933Z,50.94
2022-08-18T05:21:50.807Z,51.52
2022-08-18T05:24:19.774Z,51.89
2022-08-18T05:26:47.670Z,53.43
2022-08-18T05:29:18.640Z,53.93
2022-08-18T05:31:52.017Z,54.09
2022-08-18T05:34:21.287Z,53.32
2022-08-18T05:36:48.724Z,52.69
2022-08-18T05:39:21.421Z,52.84
2022-08-18T05:41:48.783Z,52.37
2022-08-18T05:44:18.648Z,51.76
2022-08-18T05:46:52.402Z,51.62
2022-08-18T05:49:21.305Z,51.87
2022-08-18T05:51:56.794Z,51.65
2022-08-18T05:54:43.204Z,51.43
2022-08-18T05:57:12.492Z,50.59
2022-08-18T05:59:40.516Z,49.79
2022-08-18T06:02:13.075Z,48.85
2022-08-18T06:04:45.635Z,49.54
2022-08-18T06:07:15.627Z,49.16
2022-08-18T06:09:50.970Z,49.02
2022-08-18T06:12:22.731Z,48.28
2022-08-18T06:14:50.242Z,47.86
2022-08-18T06:17:33.110Z,47.61
2022-08-18T06:20:09.256Z,46.99
2022-08-18T06:22:56.582Z,46.50
2022-08-18T06:25:35.449Z,46.76
2022-08-18T06:28:10.868Z,46.82
2022-08-18T06:30:41.775Z,46.47
2022-08-18T06:33:31.712Z,45.51
2022-08-18T06:36:02.719Z,46.25
2022-08-18T06:38:49.079Z,45.40
2022-08-18T06:41:41.794Z,45.32
2022-08-18T06:44:08.657Z,44.92
2022-08-18T06:46:41.004Z,43.95
2022-08-18T06:49:09.289Z,43.22
2022-08-18T06:51:40.656Z,41.95
2022-08-18T06:54:09.071Z,41.21
2022-08-18T06:56:45.935Z,41.03
2022-08-18T06:59:22.499Z,40.04
2022-08-18T07:01:54.112Z,39.61
2022-08-18T07:04:30.578Z,39.14
2022-08-18T07:06:58.060Z,39.08
2022-08-18T07:09:26.130Z,37.64
2022-08-18T07:12:01.259Z,37.84
2022-08-18T07:14:29.061Z,37.67
2022-08-18T07:17:10.344Z,36.99
2022-08-18T07:19:37.859Z,38.20
2022-08-18T07:22:07.118Z,35.62
2022-08-18T07:24:37.482Z,36.09
2022-08-18T07:27:08.035Z,35.59
2022-08-18T07:29:36.702Z,35.45
2022-08-18T07:32:20.751Z,35.31
2022-08-18T07:34:54.232Z,33.73
2022-08-18T07:37:28.633Z,32.66
2022-08-18T07:40:15.049Z,32.73
2022-08-18T07:43:01.291Z,32.12
2022-08-18T07:45:41.436Z,32.52
2022-08-18T07:48:37.222Z,32.26
2022-08-18T07:51:08.523Z,31.76
2022-08-18T07:53:56.268Z,32.31
2022-08-18T07:56:37.837Z,31.70
2022-08-18T07:59:25.726Z,31.45
2022-08-18T08:02:00.059Z,31.16
2022-08-18T08:04:39.751Z,31.84
2022-08-18T08:07:30.525Z,30.63
2022-08-18T08:10:03.963Z,29.49
2022-08-18T08:12:49.566Z,30.25
2022-08-18T08:15:26.639Z,30.13
2022-08-18T08:17:57.429Z,30.98
2022-08-18T08:20:33.698Z,30.42
2022-08-18T08:23:17.745Z,31.53
2022-08-18T08:25:47.983Z,29.34
2022-08-18T08:28:24.357Z,29.38
2022-08-18T08:31:02.123Z,29.89
2022-08-18T08:33:42.499Z,29.25
2022-08-18T08:36:22.210Z,28.81
2022-08-18T08:38:54.710Z,27.95
2022-08-18T08:41:28.180Z,28.28
2022-08-18T08:44:04.299Z,28.39
2022-08-18T08:46:33.317Z,27.80
2022-08-18T08:49:02.554Z,28.20
2022-08-18T08:51:32.475Z,27.93
2022-08-18T08:54:11.443Z,27.72
2022-08-18T08:56:45.649Z,27.48
2022-08-18T08:59:17.041Z,25.49
2022-08-18T09:01:44.858Z,26.78
2022-08-18T09:04:15.067Z,26.24
2022-08-18T09:06:42.571Z,26.68
2022-08-18T09:09:45.179Z,25.98
2022-08-18T09:12:12.553Z,25.61
2022-08-18T09:14:43.013Z,26.31
2022-08-18T09:17:23.947Z,26.31
2022-08-18T09:20:07.622Z,26.07
2022-08-18T09:22:34.781Z,26.03
2022-08-18T09:25:02.570Z,26.25
2022-08-18T09:27:43.581Z,26.01
2022-08-18T09:30:39.043Z,27.74
2022-08-18T09:33:19.660Z,26.48
2022-08-18T09:35:51.972Z,26.52
2022-08-18T09:38:41.807Z,27.26
2022-08-18T09:41:31.989Z,26.09
2022-08-18T09:47:00.773Z,25.26
2022-08-18T09:49:29.209Z,26.06
2022-08-18T09:50:38.138Z,25.38
2022-08-18T09:51:58.264Z,25.42
2022-08-18T09:54:27.472Z,24.10
2022-08-18T09:57:03.616Z,25.33
2022-08-18T09:59:32.739Z,25.17
2022-08-18T10:02:06.727Z,24.45
2022-08-18T10:04:51.109Z,24.76
2022-08-18T10:07:21.070Z,24.79
2022-08-18T10:09:54.338Z,24.46
2022-08-18T10:12:27.372Z,24.37
2022-08-18T10:15:12.346Z,23.66
2022-08-18T10:17:42.896Z,23.99
2022-08-18T10:20:27.168Z,23.41
2022-08-18T10:22:54.889Z,23.91
2022-08-18T10:25:31.527Z,23.43
2022-08-18T10:28:01.895Z,22.66
2022-08-18T10:30:34.332Z,22.78
2022-08-18T10:33:37.700Z,22.66
2022-08-18T10:36:06.437Z,21.50
2022-08-18T10:38:47.836Z,22.81
2022-08-18T10:41:21.334Z,21.75
2022-08-18T10:43:55.988Z,22.89
2022-08-18T10:46:55.212Z,23.30
2022-08-18T10:49:25.917Z,24.01
2022-08-18T10:52:09.497Z,22.73
2022-08-18T10:54:52.026Z,22.54
2022-08-18T10:57:21.803Z,21.80
2022-08-18T10:59:59.843Z,21.75
2022-08-18T11:02:34.568Z,21.95
2022-08-18T11:05:05.181Z,23.00
2022-08-18T11:07:35.660Z,22.01
2022-08-18T11:10:57.893Z,23.26
2022-08-18T11:13:18.279Z,22.48
2022-08-18T11:15:51.500Z,21.91
2022-08-18T11:18:30.369Z,22.06
2022-08-18T11:21:16.981Z,23.25
2022-08-18T11:23:44.632Z,21.67
2022-08-18T11:26:18.389Z,23.60
2022-08-18T11:28:46.998Z,23.00
2022-08-18T11:31:14.183Z,21.90
2022-08-18T11:33:42.234Z,21.82
2022-08-18T11:36:10.925Z,22.40
2022-08-18T11:38:39.434Z,22.11
2022-08-18T11:41:12.665Z,21.31
2022-08-18T11:43:43.386Z,22.41
2022-08-18T11:46:16.604Z,21.50
2022-08-18T11:48:49.642Z,22.79
2022-08-18T11:51:23.511Z,21.75
2022-08-18T11:53:58.327Z,22.25
2022-08-18T11:56:32.225Z,21.84
2022-08-18T11:59:21.458Z,21.53
2022-08-18T12:01:51.503Z,20.84
2022-08-18T12:04:30.175Z,21.65
2022-08-18T12:07:04.745Z,21.29
2022-08-18T12:10:14.788Z,21.44
2022-08-18T12:15:17.753Z,21.62
2022-08-18T12:17:52.924Z,21.86
2022-08-18T12:20:21.407Z,21.88
2022-08-18T12:22:49.876Z,21.14
2022-08-18T12:25:24.387Z,21.71
2022-08-18T12:27:55.892Z,22.14
2022-08-18T12:30:24.023Z,21.25
2022-08-18T12:35:42.006Z,21.79
2022-08-18T12:38:14.007Z,21.85
2022-08-18T12:40:41.740Z,21.36
2022-08-18T12:43:09.300Z,21.21
2022-08-18T12:45:38.277Z,22.23
2022-08-18T12:48:06.899Z,22.02
2022-08-18T12:50:43.183Z,21.99
2022-08-18T12:53:29.609Z,22.46
2022-08-18T12:56:12.495Z,22.43
2022-08-18T12:58:40.531Z,21.61
2022-08-18T13:01:08.003Z,21.39
2022-08-18T13:03:37.101Z,21.55
2022-08-18T13:06:07.142Z,21.94
2022-08-18T13:08:38.194Z,21.41
2022-08-18T13:11:23.700Z,21.17
2022-08-18T13:13:56.962Z,20.50
2022-08-18T13:16:38.587Z,21.78
2022-08-18T13:19:08.021Z,20.95
2022-08-18T13:21:40.831Z,21.29
2022-08-18T13:24:13.974Z,21.08
2022-08-18T13:26:45.758Z,19.56
2022-08-18T13:29:18.308Z,19.79
2022-08-18T13:31:55.594Z,19.94
2022-08-18T13:34:24.318Z,19.91
2022-08-18T13:36:52.953Z,20.56
2022-08-18T13:39:21.347Z,20.26
2022-08-18T13:41:50.089Z,20.25
2022-08-18T13:44:19.832Z,20.75
2022-08-18T13:46:48.293Z,20.69
2022-08-18T13:49:18.624Z,20.35
2022-08-18T13:51:52.585Z,19.75
2022-08-18T13:54:30.889Z,19.99
2022-08-18T13:57:00.424Z,18.91
2022-08-18T13:59:31.671Z,19.45
2022-08-18T14:02:00.263Z,20.52
2022-08-18T14:04:28.313Z,19.68
2022-08-18T14:06:58.827Z,20.56
2022-08-18T14:09:36.451Z,19.77
2022-08-18T14:12:06.193Z,19.29
2022-08-18T14:14:36.558Z,19.87
2022-08-18T14:17:03.809Z,19.83
2022-08-18T14:19:53.356Z,20.24
2022-08-18T14:22:42.283Z,20.93
2022-08-18T14:25:28.987Z,20.16
2022-08-18T14:27:57.174Z,19.89
2022-08-18T14:30:25.101Z,20.80
2022-08-18T14:32:55.445Z,20.51
2022-08-18T14:35:34.305Z,20.24
2022-08-18T14:38:15.409Z,20.48
2022-08-18T14:40:44.114Z,20.03
2022-08-18T14:43:14.189Z,20.82
2022-08-18T14:45:48.760Z,20.10
2022-08-18T14:48:18.432Z,20.11
2022-08-18T14:50:49.190Z,20.15
2022-08-18T14:53:20.183Z,19.84
2022-08-18T14:55:49.518Z,20.03
2022-08-18T14:58:20.769Z,20.48
2022-08-18T15:00:53.320Z,19.68
2022-08-18T15:03:28.255Z,19.77
2022-08-18T15:05:59.141Z,20.83
2022-08-18T15:08:26.952Z,20.42
2022-08-18T15:10:56.396Z,19.10
2022-08-18T15:13:26.555Z,19.57
2022-08-18T15:15:55.923Z,19.22
2022-08-18T15:18:29.895Z,19.10
2022-08-18T15:21:19.403Z,19.17
2022-08-18T15:24:21.079Z,19.73
2022-08-18T15:26:57.453Z,19.74
2022-08-18T15:29:28.008Z,20.47
2022-08-18T15:32:05.898Z,20.36
2022-08-18T15:34:47.101Z,20.42
2022-08-18T15:37:20.265Z,19.93
2022-08-18T15:39:58.254Z,20.67
2022-08-18T15:42:26.902Z,20.25
2022-08-18T15:44:54.701Z,20.63
2022-08-18T15:47:25.188Z,20.58
2022-08-18T15:49:54.990Z,20.60
2022-08-18T15:52:24.590Z,20.79
2022-08-18T15:54:56.805Z,20.38
2022-08-18T15:57:38.827Z,21.15
2022-08-18T16:00:13.609Z,20.95
2022-08-18T16:02:44.715Z,20.72
2022-08-18T16:05:17.131Z,21.29
2022-08-18T16:07:46.052Z,21.12
2022-08-18T16:10:14.509Z,21.15
2022-08-18T16:12:46.294Z,21.35
2022-08-18T16:15:14.436Z,21.17
2022-08-18T16:17:47.778Z,21.46
2022-08-18T16:20:15.363Z,21.87
2022-08-18T16:22:43.126Z,22.06
2022-08-18T16:25:10.588Z,22.62
2022-08-18T16:27:41.469Z,22.22
2022-08-18T16:30:12.394Z,21.78
2022-08-18T16:32:40.353Z,21.92
2022-08-18T16:35:07.715Z,22.06
2022-08-18T16:37:35.021Z,22.26
2022-08-18T16:40:02.651Z,22.61
2022-08-18T16:42:32.698Z,23.23
2022-08-18T16:45:00.264Z,23.07
2022-08-18T16:47:28.114Z,22.96
2022-08-18T16:49:58.340Z,23.06
2022-08-18T16:52:27.280Z,23.29
2022-08-18T16:54:57.525Z,22.72
2022-08-18T16:57:55.007Z,22.88
2022-08-18T17:00:45.054Z,23.34
2022-08-18T17:03:30.684Z,23.87
2022-08-18T17:05:59.053Z,24.49
2022-08-18T17:08:26.216Z,24.74
2022-08-18T17:10:53.487Z,25.22
2022-08-18T17:13:21.030Z,26.05
2022-08-18T17:15:51.286Z,26.95
2022-08-18T17:18:19.917Z,27.70
2022-08-18T17:20:47.391Z,27.79
2022-08-18T17:23:14.918Z,27.63
2022-08-18T17:25:42.438Z,27.99
2022-08-18T17:28:10.491Z,26.96
2022-08-18T17:30:39.683Z,27.50
2022-08-18T17:33:11.965Z,27.83
2022-08-18T17:35:41.603Z,28.29
2022-08-18T17:38:13.153Z,29.41
2022-08-18T17:40:44.506Z,29.14
2022-08-18T17:43:12.841Z,29.67
2022-08-18T17:45:40.164Z,28.16
2022-08-18T17:48:08.035Z,29.38
2022-08-18T17:51:14.348Z,29.63
2022-08-18T17:53:42.110Z,28.60
2022-08-18T17:56:15.549Z,29.39
2022-08-18T17:59:00.192Z,29.60
2022-08-18T18:01:27.508Z,29.27
2022-08-18T18:03:55.235Z,28.99
2022-08-18T18:06:30.292Z,29.98
2022-08-18T18:09:01.492Z,30.55
2022-08-18T18:11:33.435Z,30.89
2022-08-18T18:14:02.039Z,30.88
2022-08-18T18:16:35.455Z,30.24
2022-08-18T18:19:06.036Z,30.62
2022-08-18T18:22:00.503Z,31.31
2022-08-18T18:24:24.349Z,31.31
2022-08-18T18:26:52.253Z,31.92
2022-08-18T18:29:21.778Z,32.30
2022-08-18T18:31:55.504Z,32.88
2022-08-18T18:34:31.270Z,32.27
2022-08-18T18:36:59.525Z,32.48
2022-08-18T18:39:33.029Z,32.66
2022-08-18T18:42:28.040Z,32.87
2022-08-18T18:44:59.168Z,33.20
2022-08-18T18:47:29.934Z,33.93
2022-08-18T18:49:59.555Z,33.90
2022-08-18T18:52:42.292Z,33.77
2022-08-18T18:55:15.477Z,34.38
2022-08-18T18:58:02.014Z,34.01
2022-08-18T19:00:40.939Z,33.90
2022-08-18T19:03:09.199Z,34.06
2022-08-18T19:05:59.002Z,33.94
2022-08-18T19:08:33.257Z,34.15
2022-08-18T19:11:07.381Z,34.47
2022-08-18T19:13:39.813Z,35.12
2022-08-18T19:16:23.191Z,34.83
2022-08-18T19:19:37.599Z,35.11
2022-08-18T19:22:05.835Z,35.04
2022-08-18T19:24:34.965Z,35.14
2022-08-18T19:27:03.688Z,35.89
2022-08-18T19:29:32.232Z,36.75
2022-08-18T19:32:07.701Z,36.39
2022-08-18T19:34:44.887Z,36.01
2022-08-18T19:37:40.454Z,35.96
2022-08-18T19:40:21.232Z,36.16
2022-08-18T19:43:06.016Z,36.34
2022-08-18T19:45:53.147Z,35.51
2022-08-18T19:48:39.470Z,35.54
2022-08-18T19:51:10.307Z,35.47
2022-08-18T19:54:04.230Z,35.69
2022-08-18T19:56:34.663Z,36.13
2022-08-18T19:59:18.100Z,36.33
2022-08-18T20:02:15.560Z,36.10
2022-08-18T20:04:43.564Z,36.11
2022-08-18T20:07:26.954Z,36.82
2022-08-18T20:09:54.324Z,36.73
2022-08-18T20:12:37.701Z,36.70
2022-08-18T20:15:15.789Z,36.52
2022-08-18T20:17:59.148Z,36.93
2022-08-18T20:20:30.983Z,36.88
2022-08-18T20:22:58.644Z,37.58
2022-08-18T20:25:35.836Z,37.69
2022-08-18T20:28:05.515Z,37.33
2022-08-18T20:30:34.248Z,37.58
2022-08-18T20:33:10.600Z,37.45
2022-08-18T20:35:40.871Z,37.25
2022-08-18T20:38:15.463Z,36.94
2022-08-18T20:40:44.746Z,37.43
2022-08-18T20:43:30.669Z,36.88
2022-08-18T20:46:10.257Z,36.61
2022-08-18T20:48:52.861Z,36.63
2022-08-18T20:51:24.202Z,36.79
2022-08-18T20:54:13.267Z,37.00
2022-08-18T20:56:43.916Z,36.69
2022-08-18T20:59:20.759Z,36.28
2022-08-18T21:01:55.335Z,36.84
2022-08-18T21:04:45.380Z,36.05
2022-08-18T21:07:16.767Z,35.96
2022-08-18T21:09:48.649Z,35.65
2022-08-18T21:12:21.920Z,35.89
2022-08-18T21:14:54.423Z,36.23
2022-08-18T21:17:23.593Z,36.38
2022-08-18T21:19:50.802Z,36.00
2022-08-18T21:22:18.396Z,35.88
2022-08-18T21:24:50.231Z,36.18
2022-08-18T21:27:20.352Z,36.15
2022-08-18T21:29:49.548Z,36.69
2022-08-18T21:32:18.421Z,36.42
2022-08-18T21:34:45.584Z,36.55
2022-08-18T21:37:13.747Z,36.77
2022-08-18T21:39:57.853Z,36.52
2022-08-18T21:42:39.245Z,36.72
2022-08-18T21:45:06.575Z,36.64
2022-08-18T21:47:34.510Z,37.02
2022-08-18T21:50:01.619Z,36.83
2022-08-18T21:52:29.670Z,36.61
2022-08-18T21:54:57.997Z,36.84
2022-08-18T21:57:26.234Z,36.80
2022-08-18T22:00:14.530Z,36.89
2022-08-18T22:02:41.961Z,37.13
2022-08-18T22:05:10.108Z,36.92
2022-08-18T22:07:37.339Z,37.18
2022-08-18T22:10:37.773Z,37.31
2022-08-18T22:13:23.672Z,37.38
2022-08-18T22:15:51.131Z,37.32
2022-08-18T22:18:18.271Z,37.37
2022-08-18T22:20:45.414Z,37.56
2022-08-18T22:23:31.599Z,37.64
2022-08-18T22:26:09.305Z,37.91
2022-08-18T22:28:41.816Z,38.28
2022-08-18T22:31:09.009Z,38.34
2022-08-18T22:33:36.440Z,38.21
2022-08-18T22:36:04.546Z,38.53
2022-08-18T22:38:31.718Z,38.79
2022-08-18T22:40:59.132Z,38.79
2022-08-18T22:43:26.406Z,38.93
2022-08-18T22:45:55.882Z,38.76
2022-08-18T22:48:23.312Z,38.84
2022-08-18T22:50:51.565Z,39.08
2022-08-18T22:53:18.750Z,39.19
2022-08-18T22:55:46.607Z,39.57
2022-08-18T22:58:15.982Z,39.19
2022-08-18T23:00:49.015Z,39.27
2022-08-18T23:03:17.580Z,39.13
2022-08-18T23:05:44.816Z,39.38
2022-08-18T23:08:12.265Z,39.46
2022-08-18T23:10:39.448Z,39.34
2022-08-18T23:13:06.669Z,39.50
2022-08-18T23:15:49.613Z,39.74
2022-08-18T23:18:19.410Z,39.27
2022-08-18T23:20:47.944Z,39.55
2022-08-18T23:23:16.030Z,39.63
2022-08-18T23:25:44.286Z,39.73
2022-08-18T23:28:11.947Z,39.50
2022-08-18T23:30:39.570Z,39.06
2022-08-18T23:33:07.486Z,38.99
2022-08-18T23:35:34.937Z,38.66
2022-08-18T23:38:02.419Z,38.55
2022-08-18T23:40:30.119Z,38.49
2022-08-18T23:42:57.576Z,38.03
2022-08-18T23:45:24.794Z,37.71
2022-08-18T23:47:52.948Z,37.76
2022-08-18T23:50:25.000Z,37.70
2022-08-18T23:52:57.437Z,37.83
2022-08-18T23:55:25.172Z,37.55
2022-08-18T23:57:52.420Z,37.67
